Time;durP1;ratioP1;P1;durP2;ratioP2;P2;SDS_P1;SDS_P2;PMS_P1;PMS_P2;Temp;Humidity;BMP_temperature;BMP_pressure;BME280_temperature;BME280_humidity;BME280_pressure;Samples;Min_cycle;Max_cycle;Signal;HPM_P1;HPM_P2
2022/11/24 00:00:31;;;;;;;11.23;2.43;;;;;;;6.94;91.35;94836.47;4966304;28;20194;-83
2022/11/24 00:02:56;;;;;;;12.83;3.10;;;;;;;7.07;90.62;94839.56;4967981;28;20237;-82
2022/11/24 00:05:22;;;;;;;10.30;2.37;;;;;;;7.05;90.28;94847.41;4975597;28;20591;-83
2022/11/24 00:07:47;;;;;;;12.20;2.27;;;;;;;7.04;90.10;94848.38;4970939;28;20192;-84
2022/11/24 00:10:13;;;;;;;12.23;3.30;;;;;;;7.14;89.25;94853.50;4951186;29;20222;-83
2022/11/24 00:12:38;;;;;;;12.47;2.77;;;;;;;7.17;89.29;94849.81;4968966;28;20208;-84
2022/11/24 00:15:03;;;;;;;11.93;2.73;;;;;;;7.17;89.23;94853.22;4979731;28;20185;-84
2022/11/24 00:17:29;;;;;;;16.57;2.93;;;;;;;7.09;88.84;94851.34;4977545;28;20193;-84
2022/11/24 00:19:54;;;;;;;10.80;2.40;;;;;;;7.10;88.24;94862.50;4971354;28;20185;-85
2022/11/24 00:22:20;;;;;;;12.33;2.23;;;;;;;7.21;87.78;94858.91;4948965;28;20214;-84
2022/11/24 00:24:45;;;;;;;9.60;2.17;;;;;;;7.26;87.65;94856.72;4952173;28;20748;-84
2022/11/24 00:27:10;;;;;;;20.80;3.53;;;;;;;7.17;87.95;94857.56;4974706;28;20201;-85
2022/11/24 00:29:36;;;;;;;12.90;2.23;;;;;;;7.17;87.55;94862.75;4980565;28;20570;-84
2022/11/24 00:32:04;;;;;;;13.13;2.70;;;;;;;7.03;88.01;94864.00;4978733;28;20216;-84
2022/11/24 00:34:30;;;;;;;8.07;2.60;;;;;;;7.03;88.55;94867.41;4977996;28;20216;-84
2022/11/24 00:36:55;;;;;;;12.17;2.20;;;;;;;7.06;88.27;94867.09;4962145;28;20197;-83
2022/11/24 00:39:20;;;;;;;16.03;2.77;;;;;;;7.09;87.35;94869.44;4973274;28;20196;-85
2022/11/24 00:41:46;;;;;;;8.87;2.40;;;;;;;7.15;86.91;94880.13;4978531;28;20223;-84
2022/11/24 00:44:11;;;;;;;12.07;1.87;;;;;;;7.21;86.89;94877.78;4963924;28;20186;-83
2022/11/24 00:46:36;;;;;;;13.67;2.67;;;;;;;7.23;86.51;94877.63;4977080;28;20192;-82
2022/11/24 00:49:02;;;;;;;8.87;2.27;;;;;;;7.10;87.30;94872.81;4951697;28;20189;-82
2022/11/24 00:51:31;;;;;;;10.50;2.20;;;;;;;7.15;86.95;94875.75;4972000;28;20196;-81
2022/11/24 00:53:57;;;;;;;9.37;2.60;;;;;;;7.19;86.60;94877.13;4970448;28;20219;-82
2022/11/24 00:56:23;;;;;;;10.57;2.17;;;;;;;7.26;86.63;94877.38;4949333;28;20190;-82
2022/11/24 00:58:49;;;;;;;9.50;2.23;;;;;;;7.14;86.97;94876.72;4961780;28;20564;-82
2022/11/24 01:01:20;;;;;;;11.77;2.53;;;;;;;7.07;87.52;94876.50;4964561;28;20197;-82
2022/11/24 01:03:46;;;;;;;8.50;2.63;;;;;;;7.16;86.93;94884.34;4965994;28;20670;-81
2022/11/24 01:06:16;;;;;;;15.23;2.80;;;;;;;7.23;86.09;94882.81;4959265;28;20196;-81
2022/11/24 01:08:41;;;;;;;8.40;2.13;;;;;;;7.14;86.97;94888.81;4963299;28;20198;-83
2022/11/24 01:11:21;;;;;;;11.63;1.87;;;;;;;7.00;87.64;94888.34;4976209;28;20665;-83
2022/11/24 01:13:48;;;;;;;13.37;2.73;;;;;;;7.04;87.77;94894.84;4945849;28;20240;-82
2022/11/24 01:16:27;;;;;;;10.93;2.20;;;;;;;7.06;87.70;94892.94;4960597;28;20210;-83
2022/11/24 01:18:52;;;;;;;7.37;1.87;;;;;;;7.01;87.58;94897.72;4949430;28;20200;-83
2022/11/24 01:21:19;;;;;;;13.00;1.97;;;;;;;6.97;87.53;94896.34;4977362;28;20746;-85
2022/11/24 01:23:44;;;;;;;11.13;2.40;;;;;;;6.99;87.64;94899.63;4969016;28;20666;-82
2022/11/24 01:26:11;;;;;;;13.63;3.27;;;;;;;7.10;87.12;94904.59;4966298;28;20209;-81
2022/11/24 01:28:37;;;;;;;7.73;2.07;;;;;;;7.09;87.00;94900.41;4967997;28;20186;-82
2022/11/24 01:31:05;;;;;;;11.93;2.13;;;;;;;7.06;86.92;94911.00;4953964;28;20188;-83
2022/11/24 01:33:30;;;;;;;12.37;2.00;;;;;;;7.03;86.92;94908.72;4950427;28;20296;-82
2022/11/24 01:35:57;;;;;;;12.60;2.30;;;;;;;7.19;86.07;94912.47;4959464;28;20276;-81
2022/11/24 01:38:22;;;;;;;13.40;2.10;;;;;;;7.09;86.46;94918.47;4938034;28;20212;-83
2022/11/24 01:40:47;;;;;;;6.67;2.10;;;;;;;7.04;86.38;94920.66;4972339;28;20189;-83
2022/11/24 01:43:18;;;;;;;8.80;2.60;;;;;;;7.16;86.21;94920.50;4948697;28;20268;-82
2022/11/24 01:45:45;;;;;;;7.17;1.90;;;;;;;7.14;86.15;94920.63;4964674;28;20706;-83
2022/11/24 01:48:15;;;;;;;11.97;2.23;;;;;;;7.11;86.43;94915.75;4966784;28;20185;-83
2022/11/24 01:50:40;;;;;;;11.63;2.43;;;;;;;7.09;85.68;94913.31;4972040;28;20191;-83
2022/11/24 01:53:06;;;;;;;9.70;2.43;;;;;;;7.00;85.35;94923.69;4962103;28;20209;-82
2022/11/24 01:55:35;;;;;;;8.13;2.13;;;;;;;7.01;85.28;94923.53;4951941;28;20252;-83
2022/11/24 01:58:05;;;;;;;14.37;2.87;;;;;;;6.99;84.96;94919.47;4971230;28;20192;-84
2022/11/24 02:00:31;;;;;;;10.03;2.07;;;;;;;6.91;85.13;94924.53;4948477;28;20185;-82
2022/11/24 02:02:57;;;;;;;11.00;2.10;;;;;;;6.98;85.29;94925.56;4968054;28;20235;-83
2022/11/24 02:05:26;;;;;;;16.87;2.87;;;;;;;6.89;86.56;94927.25;4973393;28;20212;-82
2022/11/24 02:07:55;;;;;;;12.97;2.37;;;;;;;7.04;85.96;94925.81;4962817;28;20217;-83
2022/11/24 02:10:20;;;;;;;8.83;2.10;;;;;;;7.08;85.73;94932.34;4944491;28;20181;-82
2022/11/24 02:12:47;;;;;;;11.37;2.53;;;;;;;7.16;85.09;94928.25;4970042;28;20677;-83
2022/11/24 02:15:14;;;;;;;10.57;2.50;;;;;;;6.99;86.00;94933.19;4967827;28;20606;-83
2022/11/24 02:17:39;;;;;;;16.23;2.07;;;;;;;6.98;85.48;94925.56;4935415;28;20190;-83
2022/11/24 02:20:07;;;;;;;8.40;2.30;;;;;;;7.00;85.08;94924.50;4958639;28;20205;-83
2022/11/24 02:23:04;;;;;;;11.60;2.53;;;;;;;7.01;85.28;94925.31;4969509;28;20282;-82
2022/11/24 02:25:47;;;;;;;14.00;2.50;;;;;;;6.90;85.40;94921.13;4903234;29;20218;-83
2022/11/24 02:28:15;;;;;;;7.70;2.37;;;;;;;6.84;85.58;94926.03;4916646;29;20206;-82
2022/11/24 02:30:40;;;;;;;11.57;2.33;;;;;;;6.53;87.16;94927.03;4900695;29;20269;-82
2022/11/24 02:33:06;;;;;;;9.37;2.20;;;;;;;6.60;86.65;94916.97;4897118;29;20219;-83
2022/11/24 02:35:31;;;;;;;7.47;2.23;;;;;;;6.60;86.70;94919.56;4901530;29;20198;-83
2022/11/24 02:37:56;;;;;;;11.27;2.00;;;;;;;6.61;86.56;94908.28;4897494;29;20227;-83
2022/11/24 02:40:24;;;;;;;9.00;2.30;;;;;;;6.64;86.22;94920.91;4903017;29;20198;-83
2022/11/24 02:42:52;;;;;;;8.07;2.50;;;;;;;6.59;86.22;94930.81;4918594;29;20242;-83
2022/11/24 02:45:18;;;;;;;15.43;3.50;;;;;;;6.48;86.95;94921.47;4876697;29;20210;-82
2022/11/24 02:47:44;;;;;;;11.07;1.93;;;;;;;6.55;86.80;94928.69;4902862;29;20246;-83
2022/11/24 02:50:09;;;;;;;10.50;2.47;;;;;;;6.47;87.02;94931.94;4906469;29;20214;-83
2022/11/24 02:52:34;;;;;;;8.77;2.20;;;;;;;6.56;86.63;94933.69;4918625;29;20210;-84
2022/11/24 02:54:59;;;;;;;13.23;2.47;;;;;;;6.53;86.58;94929.59;4915454;29;20210;-84
2022/11/24 02:57:25;;;;;;;12.03;2.83;;;;;;;6.46;86.72;94938.06;4907883;29;20198;-84
2022/11/24 02:59:50;;;;;;;9.83;2.30;;;;;;;6.36;87.16;94924.31;4903798;29;20192;-84
2022/11/24 03:02:15;;;;;;;11.63;2.40;;;;;;;6.37;86.96;94933.72;4941876;28;20214;-84
2022/11/24 03:04:43;;;;;;;7.63;2.10;;;;;;;6.32;87.06;94934.09;4973085;28;20601;-84
2022/11/24 03:07:09;;;;;;;12.57;2.40;;;;;;;6.38;86.65;94937.91;4976290;28;20193;-85
2022/11/24 03:09:34;;;;;;;12.17;2.07;;;;;;;6.37;86.89;94937.09;4976385;28;20244;-82
2022/11/24 03:11:59;;;;;;;10.10;2.30;;;;;;;6.41;86.31;94938.44;4984005;28;20526;-83
2022/11/24 03:14:25;;;;;;;17.70;2.63;;;;;;;6.41;86.59;94943.59;4972448;28;20195;-82
2022/11/24 03:16:50;;;;;;;10.00;2.30;;;;;;;6.48;85.80;94939.53;4961162;28;20214;-83
2022/11/24 03:19:15;;;;;;;15.23;2.33;;;;;;;6.43;86.16;94949.44;4980171;28;20176;-83
2022/11/24 03:21:41;;;;;;;8.90;2.43;;;;;;;6.47;85.97;94944.84;4961174;28;20209;-83
2022/11/24 03:24:06;;;;;;;12.53;2.07;;;;;;;6.46;85.83;94945.78;4970565;28;20221;-82
2022/11/24 03:26:32;;;;;;;14.13;2.87;;;;;;;6.43;85.84;94946.84;4976710;28;20223;-82
2022/11/24 03:28:58;;;;;;;10.73;2.30;;;;;;;6.49;85.64;94948.91;4972529;28;20280;-83
2022/11/24 03:31:23;;;;;;;12.00;2.60;;;;;;;6.54;85.67;94951.06;4957049;28;20219;-84
2022/11/24 03:33:49;;;;;;;12.30;2.37;;;;;;;6.60;84.58;94947.13;4966516;28;20320;-83
2022/11/24 03:36:14;;;;;;;13.90;2.43;;;;;;;6.54;85.01;94948.50;4971306;28;20653;-83
2022/11/24 03:38:39;;;;;;;8.40;2.20;;;;;;;6.48;85.85;94964.50;4979954;28;20200;-83
2022/11/24 03:41:05;;;;;;;11.80;2.60;;;;;;;6.44;85.54;94955.41;4980105;28;20188;-82
2022/11/24 03:43:30;;;;;;;9.97;2.10;;;;;;;6.42;85.77;94960.72;4961981;28;21936;-84
2022/11/24 03:45:56;;;;;;;11.10;2.20;;;;;;;6.41;85.83;94960.84;4967604;28;20642;-84
2022/11/24 03:48:21;;;;;;;16.77;2.60;;;;;;;6.39;85.83;94955.03;4970399;28;20192;-85
2022/11/24 03:50:57;;;;;;;13.07;2.63;;;;;;;6.44;85.60;94963.97;4971919;28;20623;-84
2022/11/24 03:53:24;;;;;;;10.30;2.30;;;;;;;6.44;85.39;94968.31;4962761;28;20216;-84
2022/11/24 03:55:49;;;;;;;10.40;2.90;;;;;;;6.34;86.27;94968.31;4966656;28;20188;-83
2022/11/24 03:58:15;;;;;;;10.73;2.43;;;;;;;6.34;86.86;94972.66;4967536;28;20223;-83
2022/11/24 04:00:40;;;;;;;13.23;2.53;;;;;;;6.19;87.87;94980.00;4970634;28;20294;-82
2022/11/24 04:03:05;;;;;;;8.73;2.00;;;;;;;6.26;87.82;94968.16;4976261;28;20239;-83
2022/11/24 04:05:32;;;;;;;14.20;2.73;;;;;;;6.37;87.02;94975.78;4964932;28;20213;-83
2022/11/24 04:08:01;;;;;;;5.93;2.00;;;;;;;6.25;87.82;94984.59;4977271;28;20208;-82
2022/11/24 04:10:27;;;;;;;10.37;2.20;;;;;;;6.38;87.57;94992.91;4975527;28;20204;-82
2022/11/24 04:12:52;;;;;;;10.20;2.47;;;;;;;6.32;88.47;94992.59;4968439;28;20217;-82
2022/11/24 04:15:18;;;;;;;9.90;2.50;;;;;;;6.35;88.53;94979.44;4974885;28;20201;-82
2022/11/24 04:17:44;;;;;;;9.40;1.93;;;;;;;6.40;88.34;94985.81;4933429;28;20213;-83
2022/11/24 04:20:11;;;;;;;9.03;2.07;;;;;;;6.45;88.73;94986.25;4970519;28;20671;-83
2022/11/24 04:22:36;;;;;;;12.50;2.00;;;;;;;6.34;88.70;94996.69;4949579;28;20213;-83
2022/11/24 04:25:02;;;;;;;8.87;2.20;;;;;;;6.39;89.59;95002.25;4961241;28;20232;-82
2022/11/24 04:27:28;;;;;;;13.13;2.80;;;;;;;6.45;88.95;94999.13;4947120;28;20670;-82
2022/11/24 04:29:53;;;;;;;9.07;2.13;;;;;;;6.43;89.65;94997.63;4953208;28;20653;-84
2022/11/24 04:32:18;;;;;;;8.77;2.07;;;;;;;6.30;89.87;95003.06;4959514;28;20213;-83
2022/11/24 04:34:44;;;;;;;7.47;2.10;;;;;;;6.19;90.46;95003.19;4969007;28;20204;-83
2022/11/24 04:37:09;;;;;;;11.87;2.10;;;;;;;6.18;90.57;95009.28;4971312;28;20197;-84
2022/11/24 04:39:34;;;;;;;10.97;2.10;;;;;;;6.28;90.57;95002.38;4968535;28;20196;-83
2022/11/24 04:42:00;;;;;;;13.77;2.67;;;;;;;6.39;90.16;95006.59;4968340;28;20216;-84
2022/11/24 04:44:25;;;;;;;8.27;2.10;;;;;;;6.39;90.26;95006.59;4976487;28;20630;-83
2022/11/24 04:46:50;;;;;;;8.93;2.23;;;;;;;6.42;89.88;94996.81;4975720;28;20616;-82
2022/11/24 04:49:16;;;;;;;9.37;1.87;;;;;;;6.32;90.49;95011.47;4977435;28;20652;-83
2022/11/24 04:51:41;;;;;;;11.13;2.00;;;;;;;6.24;91.02;95009.56;4960595;28;20187;-82
2022/11/24 04:54:08;;;;;;;6.00;1.73;;;;;;;6.23;91.17;95001.97;4977213;28;20239;-84
2022/11/24 04:56:34;;;;;;;10.40;2.23;;;;;;;6.34;90.78;95009.56;4975734;28;20562;-83
2022/11/24 04:58:59;;;;;;;6.47;2.17;;;;;;;6.41;90.26;95008.09;4961368;28;20181;-83
2022/11/24 05:01:25;;;;;;;7.37;2.00;;;;;;;6.42;90.22;95012.28;4957207;28;20173;-83
2022/11/24 05:03:54;;;;;;;12.60;2.17;;;;;;;6.38;90.66;95016.09;4963052;28;20696;-84
2022/11/24 05:06:20;;;;;;;8.33;2.00;;;;;;;6.29;90.72;95011.75;4967850;28;20610;-83
2022/11/24 05:08:46;;;;;;;14.03;2.10;;;;;;;6.34;90.42;95008.75;4978534;28;20196;-83
2022/11/24 05:11:12;;;;;;;8.33;2.30;;;;;;;6.32;90.58;95010.66;4955184;28;20184;-83
2022/11/24 05:13:38;;;;;;;5.93;1.90;;;;;;;6.26;90.62;95017.16;4971280;28;20267;-82
2022/11/24 05:16:04;;;;;;;7.93;2.23;;;;;;;6.35;90.36;95031.81;4971798;28;20698;-84
2022/11/24 05:18:30;;;;;;;10.50;2.40;;;;;;;6.34;90.57;95024.22;4960496;28;20602;-81
2022/11/24 05:20:57;;;;;;;7.83;2.10;;;;;;;6.38;90.28;95036.72;4971642;28;20195;-82
2022/11/24 05:23:22;;;;;;;8.10;2.07;;;;;;;6.15;91.96;95030.19;4971275;28;20232;-82
2022/11/24 05:25:47;;;;;;;9.70;2.40;;;;;;;6.19;91.74;95034.13;4973618;28;20704;-82
2022/11/24 05:28:12;;;;;;;8.93;2.00;;;;;;;6.04;92.87;95032.88;4955556;28;20525;-84
2022/11/24 05:30:38;;;;;;;8.37;2.10;;;;;;;6.13;92.36;95030.31;4943568;28;20292;-83
2022/11/24 05:33:10;;;;;;;9.37;2.77;;;;;;;6.14;91.86;95029.38;4976821;28;20205;-82
2022/11/24 05:35:35;;;;;;;10.23;2.03;;;;;;;6.02;93.22;95029.63;4963086;28;20176;-84
2022/11/24 05:38:01;;;;;;;10.73;2.50;;;;;;;6.06;92.64;95031.78;4958673;28;20197;-82
2022/11/24 05:40:27;;;;;;;7.20;2.30;;;;;;;5.98;93.42;95031.63;4978935;28;20204;-82
2022/11/24 05:42:52;;;;;;;7.67;2.03;;;;;;;5.89;94.20;95038.34;4977431;28;20220;-85
2022/11/24 05:45:19;;;;;;;9.43;2.73;;;;;;;5.99;93.67;95032.44;4976474;28;20283;-84
2022/11/24 05:47:45;;;;;;;11.13;4.83;;;;;;;6.15;92.54;95027.59;4977783;28;20268;-83
2022/11/24 05:50:12;;;;;;;13.80;5.03;;;;;;;6.10;92.87;95035.75;4971700;28;20192;-85
2022/11/24 05:52:38;;;;;;;12.10;3.27;;;;;;;6.12;93.04;95033.03;4956351;28;20205;-84
2022/11/24 05:55:04;;;;;;;7.10;2.47;;;;;;;6.17;92.41;95030.84;4972521;28;20240;-83
2022/11/24 05:57:30;;;;;;;7.93;2.53;;;;;;;6.12;93.02;95025.31;4969589;28;20611;-84
2022/11/24 05:59:55;;;;;;;9.30;2.53;;;;;;;6.07;93.51;95025.69;4976656;28;20213;-83
2022/11/24 06:02:20;;;;;;;8.00;2.23;;;;;;;6.08;93.39;95029.88;4971639;28;20212;-83
2022/11/24 06:04:46;;;;;;;8.70;2.70;;;;;;;6.13;93.19;95037.25;4974206;28;20188;-84
2022/11/24 06:07:11;;;;;;;6.30;2.17;;;;;;;6.12;93.54;95033.03;4961096;28;20198;-82
2022/11/24 06:09:37;;;;;;;9.80;2.20;;;;;;;6.03;94.10;95029.47;4937902;28;20193;-83
2022/11/24 06:12:04;;;;;;;8.87;2.73;;;;;;;5.93;95.17;95041.53;4968734;28;20177;-82
2022/11/24 06:14:30;;;;;;;7.80;1.97;;;;;;;5.97;95.23;95037.75;4968369;28;20192;-82
2022/11/24 06:16:55;;;;;;;13.43;2.20;;;;;;;5.97;96.02;95046.28;4955579;28;20855;-82
2022/11/24 06:19:20;;;;;;;7.20;2.27;;;;;;;5.99;96.19;95055.63;4959977;28;20235;-82
2022/11/24 06:21:46;;;;;;;8.97;2.37;;;;;;;5.93;97.32;95057.81;4981243;28;20572;-82
2022/11/24 06:24:11;;;;;;;8.83;2.40;;;;;;;6.13;95.66;95058.69;4966114;28;20200;-81
2022/11/24 06:26:36;;;;;;;8.23;2.20;;;;;;;6.08;96.93;95062.59;4969325;28;20196;-81
2022/11/24 06:29:02;;;;;;;9.47;2.03;;;;;;;6.13;96.72;95073.31;4958192;28;20201;-82
2022/11/24 06:31:27;;;;;;;7.37;1.90;;;;;;;6.12;96.69;95082.00;4952220;28;20285;-81
2022/11/24 06:33:52;;;;;;;13.77;2.77;;;;;;;6.05;97.83;95086.06;4954271;28;20200;-81
2022/11/24 06:36:18;;;;;;;9.83;2.40;;;;;;;6.05;98.35;95092.03;4958536;28;20215;-80
2022/11/24 06:38:43;;;;;;;10.17;2.40;;;;;;;6.02;98.84;95091.47;4962837;28;20188;-81
2022/11/24 06:41:11;;;;;;;9.03;2.60;;;;;;;6.05;99.02;95092.03;4958939;28;20197;-80
2022/11/24 06:43:36;;;;;;;8.77;2.30;;;;;;;5.92;98.91;95088.88;4955680;28;20310;-80
2022/11/24 06:46:02;;;;;;;10.77;2.97;;;;;;;6.10;98.15;95105.34;4954412;28;20221;-82
2022/11/24 06:48:28;;;;;;;13.60;5.10;;;;;;;6.17;97.33;95103.03;4964500;28;20284;-81
2022/11/24 06:51:00;;;;;;;20.67;8.90;;;;;;;6.11;97.38;95098.44;4959916;28;20284;-80
2022/11/24 06:53:29;;;;;;;8.37;2.70;;;;;;;6.07;96.90;95112.50;4967508;28;20314;-79
2022/11/24 06:55:57;;;;;;;19.63;13.10;;;;;;;6.27;95.98;95114.19;4959084;28;20181;-81
2022/11/24 06:58:23;;;;;;;20.73;11.03;;;;;;;6.19;97.03;95117.44;4955772;28;20203;-81
2022/11/24 07:00:48;;;;;;;7.00;2.00;;;;;;;6.12;97.75;95120.69;4963383;28;20681;-81
2022/11/24 07:03:15;;;;;;;5.97;1.90;;;;;;;6.17;96.90;95121.91;4966376;28;20228;-80
2022/11/24 07:05:40;;;;;;;5.00;1.50;;;;;;;6.25;96.38;95134.16;4977229;28;20223;-81
2022/11/24 07:08:06;;;;;;;8.77;1.57;;;;;;;6.20;96.88;95134.56;4946666;28;20224;-80
2022/11/24 07:10:32;;;;;;;4.97;1.73;;;;;;;6.19;96.38;95145.81;4956997;28;20193;-82
2022/11/24 07:12:57;;;;;;;4.97;2.40;;;;;;;6.25;97.02;95147.03;4966316;28;20220;-82
2022/11/24 07:15:22;;;;;;;5.07;1.40;;;;;;;6.19;96.35;95152.72;4974606;28;20255;-81
2022/11/24 07:17:48;;;;;;;2.67;0.90;;;;;;;6.09;96.86;95151.84;4951743;28;20203;-82
2022/11/24 07:20:13;;;;;;;5.90;1.63;;;;;;;6.07;96.80;95154.56;4972854;28;20188;-82
2022/11/24 07:22:38;;;;;;;4.53;2.90;;;;;;;6.19;96.10;95163.06;4966302;28;20701;-81
2022/11/24 07:25:06;;;;;;;6.97;3.17;;;;;;;6.08;96.75;95179.41;4972270;28;20208;-82
2022/11/24 07:27:32;;;;;;;7.43;4.10;;;;;;;6.10;97.37;95184.44;4966898;28;20627;-81
2022/11/24 07:29:58;;;;;;;6.47;3.83;;;;;;;6.15;97.28;95192.59;4970043;28;20189;-81
2022/11/24 07:32:23;;;;;;;3.47;1.30;;;;;;;5.89;97.74;95184.44;4965677;28;20326;-81
2022/11/24 07:34:48;;;;;;;3.43;2.77;;;;;;;6.08;96.68;95184.56;4962422;28;20221;-81
2022/11/24 07:37:13;;;;;;;2.83;1.30;;;;;;;5.85;96.55;95183.88;4942667;28;20193;-82
2022/11/24 07:39:39;;;;;;;2.47;1.00;;;;;;;5.81;95.59;95171.38;4961325;28;20189;-81
2022/11/24 07:42:05;;;;;;;1.40;1.00;;;;;;;5.83;96.16;95177.22;4961967;28;20196;-82
2022/11/24 07:44:30;;;;;;;2.10;0.67;;;;;;;5.47;95.32;95169.00;4963409;28;20214;-82
2022/11/24 07:46:56;;;;;;;1.50;0.67;;;;;;;5.71;95.01;95149.91;4967758;28;20208;-82
2022/11/24 07:49:21;;;;;;;0.83;0.60;;;;;;;5.46;95.90;95156.25;4958080;28;20204;-82
2022/11/24 07:51:47;;;;;;;1.60;0.70;;;;;;;5.60;95.10;95158.53;4941556;28;20200;-81
2022/11/24 07:54:12;;;;;;;0.77;0.50;;;;;;;5.48;95.76;95165.50;4965570;28;20259;-81
2022/11/24 07:56:37;;;;;;;1.47;0.43;;;;;;;5.63;95.10;95173.72;4966798;28;20233;-82
2022/11/24 07:59:03;;;;;;;0.47;0.43;;;;;;;5.59;93.89;95169.78;4942984;28;20621;-82
2022/11/24 08:01:28;;;;;;;0.90;0.57;;;;;;;5.65;93.42;95176.97;4950922;28;20203;-82
2022/11/24 08:03:53;;;;;;;1.10;0.60;;;;;;;5.76;92.76;95182.06;4963156;28;20753;-82
2022/11/24 08:06:19;;;;;;;1.30;0.60;;;;;;;5.90;92.74;95180.91;4959691;28;20690;-81
2022/11/24 08:08:45;;;;;;;1.13;0.50;;;;;;;5.63;93.71;95181.44;4952934;28;20251;-81
2022/11/24 08:11:13;;;;;;;1.07;0.40;;;;;;;5.64;93.60;95185.66;4968975;28;20196;-81
2022/11/24 08:13:39;;;;;;;0.97;0.50;;;;;;;5.63;94.01;95186.59;4962517;28;20212;-80
2022/11/24 08:16:10;;;;;;;1.03;0.53;;;;;;;5.70;94.00;95192.88;4965034;28;20189;-82
2022/11/24 08:18:36;;;;;;;0.83;0.40;;;;;;;5.78;93.63;95192.25;4957169;28;20267;-81
2022/11/24 08:21:02;;;;;;;2.53;0.50;;;;;;;5.72;93.83;95196.13;4964010;28;20751;-81
2022/11/24 08:23:28;;;;;;;0.37;0.30;;;;;;;5.67;93.81;95203.44;4956160;28;20264;-81
2022/11/24 08:25:55;;;;;;;0.70;0.40;;;;;;;5.74;93.39;95201.16;4952858;28;20242;-82
2022/11/24 08:28:20;;;;;;;0.40;0.40;;;;;;;5.86;93.04;95203.56;4969544;28;20747;-81
2022/11/24 08:30:46;;;;;;;0.40;0.40;;;;;;;5.90;93.07;95198.94;4958065;28;20212;-81
2022/11/24 08:33:11;;;;;;;1.03;0.60;;;;;;;5.85;92.75;95204.50;4959019;28;20277;-81
2022/11/24 08:35:37;;;;;;;0.40;0.40;;;;;;;5.98;93.02;95209.47;4967159;28;20189;-81
2022/11/24 08:38:03;;;;;;;1.03;0.60;;;;;;;6.09;92.38;95206.00;4961861;28;20189;-82
2022/11/24 08:40:28;;;;;;;0.43;0.30;;;;;;;6.15;91.59;95219.19;4959719;28;20204;-84
2022/11/24 08:42:58;;;;;;;1.60;0.50;;;;;;;6.32;90.81;95212.63;4973813;28;20214;-82
2022/11/24 08:45:23;;;;;;;0.40;0.40;;;;;;;6.29;90.77;95219.81;4959565;28;20193;-82
2022/11/24 08:47:53;;;;;;;0.50;0.50;;;;;;;6.52;89.99;95228.97;4951832;28;20544;-83
2022/11/24 08:50:19;;;;;;;0.50;0.50;;;;;;;6.66;89.17;95220.06;4942935;28;20782;-83
2022/11/24 08:52:44;;;;;;;0.63;0.50;;;;;;;6.70;88.86;95231.75;4962195;28;20680;-82
2022/11/24 08:55:10;;;;;;;0.33;0.33;;;;;;;6.63;88.88;95230.66;4962122;28;20232;-81
2022/11/24 08:57:35;;;;;;;3.07;1.10;;;;;;;6.79;88.69;95238.69;4958103;28;20221;-82
2022/11/24 09:00:01;;;;;;;5.13;2.50;;;;;;;6.86;88.81;95228.69;4958888;28;20189;-82
2022/11/24 09:02:26;;;;;;;0.30;0.30;;;;;;;6.34;90.18;95227.97;4959129;28;20197;-82
2022/11/24 09:04:52;;;;;;;0.60;0.40;;;;;;;6.12;91.03;95229.78;4963920;28;20684;-82
2022/11/24 09:07:17;;;;;;;1.33;0.63;;;;;;;6.36;91.23;95229.47;4957591;28;20258;-81
2022/11/24 09:09:42;;;;;;;1.57;0.33;;;;;;;6.24;91.49;95230.50;4946305;28;20195;-82
2022/11/24 09:12:08;;;;;;;0.90;0.67;;;;;;;6.38;91.30;95240.47;4961439;28;20892;-80
2022/11/24 09:14:33;;;;;;;1.93;1.73;;;;;;;6.40;91.56;95246.31;4954026;28;20193;-81
2022/11/24 09:16:58;;;;;;;0.30;0.30;;;;;;;6.30;93.08;95260.94;4955281;28;20661;-81
2022/11/24 09:19:24;;;;;;;1.20;0.70;;;;;;;6.44;92.65;95257.19;4932187;28;20241;-81
2022/11/24 09:21:49;;;;;;;0.97;0.87;;;;;;;6.53;92.66;95252.06;4937352;28;20224;-81
2022/11/24 09:24:15;;;;;;;1.83;0.57;;;;;;;6.37;92.40;95251.75;4972958;28;20235;-82
2022/11/24 09:26:40;;;;;;;3.00;1.60;;;;;;;6.67;91.47;95257.81;4967383;28;20212;-82
2022/11/24 09:29:09;;;;;;;4.23;2.73;;;;;;;6.86;90.40;95262.22;4961002;28;20572;-82
2022/11/24 09:31:35;;;;;;;7.57;5.43;;;;;;;7.02;90.48;95267.72;4955967;28;20677;-82
2022/11/24 09:34:02;;;;;;;2.60;1.90;;;;;;;6.90;90.30;95271.34;4941197;28;20221;-82
2022/11/24 09:36:28;;;;;;;8.17;4.17;;;;;;;7.00;90.55;95283.34;4948492;28;20697;-81
2022/11/24 09:38:54;;;;;;;1.73;1.20;;;;;;;6.82;91.60;95274.59;4947402;28;20332;-82
2022/11/24 09:41:38;;;;;;;4.90;2.93;;;;;;;7.20;91.87;95289.34;4942970;28;20208;-82
2022/11/24 09:44:18;;;;;;;5.97;3.10;;;;;;;7.80;90.46;95299.59;4953520;28;20215;-81
2022/11/24 09:47:05;;;;;;;9.10;6.10;;;;;;;7.85;89.31;95302.59;4977038;28;20211;-80
2022/11/24 09:49:55;;;;;;;2.10;1.63;;;;;;;7.64;90.22;95313.06;4970589;28;20265;-81
2022/11/24 09:52:34;;;;;;;4.90;1.67;;;;;;;7.69;89.36;95313.50;4962306;28;20220;-80
2022/11/24 09:55:01;;;;;;;5.53;3.00;;;;;;;7.44;90.01;95304.50;4959962;28;20571;-80
2022/11/24 09:57:28;;;;;;;2.93;2.30;;;;;;;7.45;89.97;95311.28;4939981;28;20195;-81
2022/11/24 09:59:58;;;;;;;2.17;1.50;;;;;;;7.34;90.23;95314.00;4969034;28;20620;-81
2022/11/24 10:02:23;;;;;;;4.87;3.10;;;;;;;7.46;90.24;95310.34;4962331;28;20308;-81
2022/11/24 10:04:51;;;;;;;3.73;2.67;;;;;;;7.64;90.16;95311.28;4961457;28;20201;-80
2022/11/24 10:07:29;;;;;;;3.07;1.67;;;;;;;7.72;89.06;95307.22;4956574;28;20240;-81
2022/11/24 10:10:05;;;;;;;3.20;1.27;;;;;;;7.80;88.94;95312.53;4954443;28;20197;-81
2022/11/24 10:12:44;;;;;;;4.40;2.37;;;;;;;8.02;88.38;95308.84;4966621;28;20204;-82
2022/11/24 10:15:20;;;;;;;8.83;4.63;;;;;;;8.39;87.14;95307.19;4963715;28;20192;-81
2022/11/24 10:18:18;;;;;;;4.73;1.53;;;;;;;8.42;86.67;95306.09;4957568;28;20197;-80
2022/11/24 10:21:09;;;;;;;6.50;1.70;;;;;;;7.76;88.94;95298.22;4961645;28;20189;-81
2022/11/24 10:23:56;;;;;;;7.20;3.73;;;;;;;7.80;88.94;95312.53;4959389;28;20293;-81
2022/11/24 10:26:34;;;;;;;7.03;2.30;;;;;;;7.73;89.06;95314.03;4960950;28;20209;-81
2022/11/24 10:29:01;;;;;;;5.47;2.30;;;;;;;7.60;90.15;95315.13;4949147;28;20196;-80
2022/11/24 10:31:33;;;;;;;5.97;2.60;;;;;;;7.65;89.75;95319.88;4959630;28;20272;-82
2022/11/24 10:34:16;;;;;;;9.83;3.00;;;;;;;7.46;91.35;95317.28;4955029;28;20213;-80
2022/11/24 10:37:15;;;;;;;6.87;2.43;;;;;;;7.73;90.66;95308.84;4958895;28;20248;-80
2022/11/24 10:40:16;;;;;;;3.67;2.10;;;;;;;7.54;90.87;95310.47;4939849;28;20216;-81
2022/11/24 10:42:42;;;;;;;6.40;3.17;;;;;;;7.44;91.19;95317.41;4952778;28;20293;-81
2022/11/24 10:45:21;;;;;;;7.47;3.27;;;;;;;7.43;91.60;95310.63;4965831;28;20243;-81
2022/11/24 10:47:47;;;;;;;6.27;2.33;;;;;;;7.49;91.43;95307.47;4963929;28;20279;-81
2022/11/24 10:50:18;;;;;;;4.80;2.10;;;;;;;7.58;91.56;95308.44;4941609;28;20272;-80
2022/11/24 10:53:02;;;;;;;7.17;2.83;;;;;;;7.86;90.46;95309.38;4962195;28;20296;-81
2022/11/24 10:55:53;;;;;;;9.00;3.40;;;;;;;7.85;89.19;95293.06;4960902;28;20654;-82
2022/11/24 10:58:21;;;;;;;8.30;3.67;;;;;;;8.00;89.26;95303.81;4943295;28;20208;-81
2022/11/24 11:00:46;;;;;;;11.13;3.37;;;;;;;7.65;89.29;95297.41;4974258;28;20333;-81
2022/11/24 11:03:21;;;;;;;8.83;2.77;;;;;;;7.62;89.18;95304.63;4965615;28;20276;-81
2022/11/24 11:05:59;;;;;;;8.23;2.70;;;;;;;7.58;89.14;95298.09;4952459;28;20227;-81
2022/11/24 11:08:28;;;;;;;6.70;2.93;;;;;;;7.62;88.81;95307.22;4960399;28;20208;-82
2022/11/24 11:11:28;;;;;;;9.67;3.40;;;;;;;7.59;88.75;95307.47;4980534;28;20215;-82
2022/11/24 11:14:04;;;;;;;10.03;3.77;;;;;;;7.59;89.03;95313.47;4973520;28;20678;-79
2022/11/24 11:16:59;;;;;;;14.60;5.30;;;;;;;7.53;88.54;95305.44;4935723;28;20182;-80
2022/11/24 11:19:34;;;;;;;9.57;2.70;;;;;;;7.61;88.01;95310.75;4886874;29;20206;-80
2022/11/24 11:22:03;;;;;;;14.50;4.00;;;;;;;7.49;87.95;95309.25;4883251;29;20279;-81
2022/11/24 11:24:28;;;;;;;14.83;3.87;;;;;;;7.58;87.12;95314.41;4895592;29;20234;-81
2022/11/24 11:27:02;;;;;;;15.70;3.70;;;;;;;7.50;86.27;95316.84;4860247;29;20215;-82
2022/11/24 11:29:28;;;;;;;9.73;2.93;;;;;;;7.60;86.77;95315.13;4892286;29;20218;-82
2022/11/24 11:32:03;;;;;;;10.47;2.77;;;;;;;7.76;85.45;95319.72;4853931;29;20290;-82
2022/11/24 11:34:35;;;;;;;9.93;3.07;;;;;;;7.76;85.80;95324.09;4885962;29;20199;-81
2022/11/24 11:37:02;;;;;;;7.13;2.90;;;;;;;7.79;84.96;95318.66;4886037;29;20210;-82
2022/11/24 11:39:30;;;;;;;7.07;2.60;;;;;;;7.94;85.14;95320.69;4852204;29;20200;-81
2022/11/24 11:42:04;;;;;;;11.10;3.80;;;;;;;7.78;85.50;95322.19;4910241;29;20273;-81